sensor_id;sensor_type;location;lat;lon;timestamp;P1;durP1;ratioP1;P2;durP2;ratioP2
2972;SDS011;1496;51.404;7.232;2024-02-21T00:01:03;26.73;;;9.23;;
2972;SDS011;1496;51.404;7.232;2024-02-21T00:03:29;22.73;;;9.90;;
2972;SDS011;1496;51.404;7.232;2024-02-21T00:05:54;19.70;;;8.70;;
2972;SDS011;1496;51.404;7.232;2024-02-21T00:08:20;20.60;;;8.73;;
2972;SDS011;1496;51.404;7.232;2024-02-21T00:10:46;23.70;;;8.30;;
2972;SDS011;1496;51.404;7.232;2024-02-21T00:13:11;22.33;;;9.07;;
2972;SDS011;1496;51.404;7.232;2024-02-21T00:15:37;17.33;;;8.30;;
2972;SDS011;1496;51.404;7.232;2024-02-21T00:18:03;22.43;;;8.80;;
2972;SDS011;1496;51.404;7.232;2024-02-21T00:20:28;22.77;;;10.43;;
2972;SDS011;1496;51.404;7.232;2024-02-21T00:22:55;16.77;;;9.37;;
2972;SDS011;1496;51.404;7.232;2024-02-21T00:25:20;21.47;;;8.70;;
2972;SDS011;1496;51.404;7.232;2024-02-21T00:27:46;24.63;;;11.80;;
2972;SDS011;1496;51.404;7.232;2024-02-21T00:30:12;24.40;;;9.50;;
2972;SDS011;1496;51.404;7.232;2024-02-21T00:32:38;22.10;;;8.53;;
2972;SDS011;1496;51.404;7.232;2024-02-21T00:35:04;17.23;;;9.70;;
2972;SDS011;1496;51.404;7.232;2024-02-21T00:37:30;20.63;;;8.60;;
2972;SDS011;1496;51.404;7.232;2024-02-21T00:39:57;25.07;;;10.00;;
2972;SDS011;1496;51.404;7.232;2024-02-21T00:42:22;26.73;;;9.70;;
2972;SDS011;1496;51.404;7.232;2024-02-21T00:44:48;20.07;;;8.17;;
2972;SDS011;1496;51.404;7.232;2024-02-21T00:47:13;26.20;;;9.83;;
2972;SDS011;1496;51.404;7.232;2024-02-21T00:49:39;31.40;;;10.77;;
2972;SDS011;1496;51.404;7.232;2024-02-21T00:52:05;22.30;;;9.30;;
2972;SDS011;1496;51.404;7.232;2024-02-21T00:54:30;26.73;;;9.07;;
2972;SDS011;1496;51.404;7.232;2024-02-21T00:56:56;23.17;;;9.67;;
2972;SDS011;1496;51.404;7.232;2024-02-21T00:59:21;29.43;;;10.53;;
2972;SDS011;1496;51.404;7.232;2024-02-21T01:01:47;20.80;;;10.30;;
2972;SDS011;1496;51.404;7.232;2024-02-21T01:04:13;31.17;;;10.37;;
2972;SDS011;1496;51.404;7.232;2024-02-21T01:06:39;23.47;;;9.20;;
2972;SDS011;1496;51.404;7.232;2024-02-21T01:09:07;21.73;;;10.93;;
2972;SDS011;1496;51.404;7.232;2024-02-21T01:11:33;18.40;;;10.00;;
2972;SDS011;1496;51.404;7.232;2024-02-21T01:13:59;30.63;;;10.17;;
2972;SDS011;1496;51.404;7.232;2024-02-21T01:16:25;20.57;;;9.30;;
2972;SDS011;1496;51.404;7.232;2024-02-21T01:18:51;25.43;;;9.47;;
2972;SDS011;1496;51.404;7.232;2024-02-21T01:21:17;26.10;;;10.87;;
2972;SDS011;1496;51.404;7.232;2024-02-21T01:23:42;20.10;;;9.87;;
2972;SDS011;1496;51.404;7.232;2024-02-21T01:26:08;22.60;;;8.70;;
2972;SDS011;1496;51.404;7.232;2024-02-21T01:28:38;26.57;;;9.70;;
2972;SDS011;1496;51.404;7.232;2024-02-21T01:31:04;20.73;;;9.13;;
2972;SDS011;1496;51.404;7.232;2024-02-21T01:33:30;22.63;;;10.00;;
2972;SDS011;1496;51.404;7.232;2024-02-21T01:36:00;22.27;;;9.37;;
2972;SDS011;1496;51.404;7.232;2024-02-21T01:38:31;28.60;;;10.57;;
2972;SDS011;1496;51.404;7.232;2024-02-21T01:40:57;19.10;;;9.73;;
2972;SDS011;1496;51.404;7.232;2024-02-21T01:43:23;24.60;;;9.93;;
2972;SDS011;1496;51.404;7.232;2024-02-21T01:45:50;24.30;;;10.50;;
2972;SDS011;1496;51.404;7.232;2024-02-21T01:48:18;22.20;;;9.67;;
2972;SDS011;1496;51.404;7.232;2024-02-21T01:50:44;23.77;;;9.83;;
2972;SDS011;1496;51.404;7.232;2024-02-21T01:53:21;27.47;;;10.57;;
2972;SDS011;1496;51.404;7.232;2024-02-21T01:55:59;27.57;;;10.87;;
2972;SDS011;1496;51.404;7.232;2024-02-21T01:58:26;15.40;;;8.97;;
2972;SDS011;1496;51.404;7.232;2024-02-21T02:00:53;18.93;;;9.80;;
2972;SDS011;1496;51.404;7.232;2024-02-21T02:03:21;16.27;;;8.93;;
2972;SDS011;1496;51.404;7.232;2024-02-21T02:05:48;17.77;;;8.97;;
2972;SDS011;1496;51.404;7.232;2024-02-21T02:08:15;23.07;;;9.33;;
2972;SDS011;1496;51.404;7.232;2024-02-21T02:10:41;26.60;;;10.20;;
2972;SDS011;1496;51.404;7.232;2024-02-21T02:13:08;22.27;;;9.13;;
2972;SDS011;1496;51.404;7.232;2024-02-21T02:18:06;18.60;;;9.90;;
2972;SDS011;1496;51.404;7.232;2024-02-21T02:20:32;30.30;;;10.67;;
2972;SDS011;1496;51.404;7.232;2024-02-21T02:23:09;17.27;;;8.63;;
2972;SDS011;1496;51.404;7.232;2024-02-21T02:25:36;26.83;;;11.03;;
2972;SDS011;1496;51.404;7.232;2024-02-21T02:28:06;26.33;;;10.70;;
2972;SDS011;1496;51.404;7.232;2024-02-21T02:30:33;24.47;;;11.03;;
2972;SDS011;1496;51.404;7.232;2024-02-21T02:33:02;23.20;;;9.17;;
2972;SDS011;1496;51.404;7.232;2024-02-21T02:35:28;25.13;;;11.30;;
2972;SDS011;1496;51.404;7.232;2024-02-21T02:37:54;24.00;;;9.43;;
2972;SDS011;1496;51.404;7.232;2024-02-21T02:40:20;19.67;;;9.30;;
2972;SDS011;1496;51.404;7.232;2024-02-21T02:42:45;18.03;;;8.63;;
2972;SDS011;1496;51.404;7.232;2024-02-21T02:45:12;19.50;;;9.70;;
2972;SDS011;1496;51.404;7.232;2024-02-21T02:47:39;15.37;;;8.57;;
2972;SDS011;1496;51.404;7.232;2024-02-21T02:50:05;15.40;;;8.10;;
2972;SDS011;1496;51.404;7.232;2024-02-21T02:52:31;15.40;;;8.10;;
2972;SDS011;1496;51.404;7.232;2024-02-21T02:54:57;22.33;;;10.27;;
2972;SDS011;1496;51.404;7.232;2024-02-21T02:57:23;16.10;;;8.43;;
2972;SDS011;1496;51.404;7.232;2024-02-21T02:59:49;17.17;;;8.33;;
2972;SDS011;1496;51.404;7.232;2024-02-21T03:02:15;25.43;;;9.83;;
2972;SDS011;1496;51.404;7.232;2024-02-21T03:04:41;17.27;;;8.13;;
2972;SDS011;1496;51.404;7.232;2024-02-21T03:07:07;17.90;;;9.50;;
2972;SDS011;1496;51.404;7.232;2024-02-21T03:09:32;15.80;;;9.30;;
2972;SDS011;1496;51.404;7.232;2024-02-21T03:11:58;19.60;;;8.33;;
2972;SDS011;1496;51.404;7.232;2024-02-21T03:14:28;18.50;;;7.77;;
2972;SDS011;1496;51.404;7.232;2024-02-21T03:16:54;19.13;;;9.30;;
2972;SDS011;1496;51.404;7.232;2024-02-21T03:19:20;20.93;;;8.10;;
2972;SDS011;1496;51.404;7.232;2024-02-21T03:21:45;23.83;;;8.97;;
2972;SDS011;1496;51.404;7.232;2024-02-21T03:24:11;18.17;;;8.00;;
2972;SDS011;1496;51.404;7.232;2024-02-21T03:26:37;22.20;;;9.00;;
2972;SDS011;1496;51.404;7.232;2024-02-21T03:29:03;22.83;;;8.90;;
2972;SDS011;1496;51.404;7.232;2024-02-21T03:31:29;21.43;;;7.77;;
2972;SDS011;1496;51.404;7.232;2024-02-21T03:33:55;19.70;;;8.53;;
2972;SDS011;1496;51.404;7.232;2024-02-21T03:36:20;21.10;;;8.33;;
2972;SDS011;1496;51.404;7.232;2024-02-21T03:38:46;21.03;;;9.20;;
2972;SDS011;1496;51.404;7.232;2024-02-21T03:41:12;17.67;;;8.70;;
2972;SDS011;1496;51.404;7.232;2024-02-21T03:43:38;16.23;;;8.10;;
2972;SDS011;1496;51.404;7.232;2024-02-21T03:46:04;16.93;;;8.57;;
2972;SDS011;1496;51.404;7.232;2024-02-21T03:48:30;17.53;;;8.50;;
2972;SDS011;1496;51.404;7.232;2024-02-21T03:50:56;22.37;;;7.40;;
2972;SDS011;1496;51.404;7.232;2024-02-21T03:53:21;16.70;;;8.63;;
2972;SDS011;1496;51.404;7.232;2024-02-21T03:55:47;14.80;;;7.47;;
2972;SDS011;1496;51.404;7.232;2024-02-21T03:58:12;15.10;;;7.93;;
2972;SDS011;1496;51.404;7.232;2024-02-21T04:00:38;19.03;;;7.70;;
2972;SDS011;1496;51.404;7.232;2024-02-21T04:03:04;23.60;;;8.13;;
2972;SDS011;1496;51.404;7.232;2024-02-21T04:05:29;15.90;;;7.83;;
2972;SDS011;1496;51.404;7.232;2024-02-21T04:07:55;22.00;;;8.40;;
2972;SDS011;1496;51.404;7.232;2024-02-21T04:10:21;17.07;;;8.17;;
2972;SDS011;1496;51.404;7.232;2024-02-21T04:12:47;21.33;;;7.70;;
2972;SDS011;1496;51.404;7.232;2024-02-21T04:15:15;25.73;;;8.53;;
2972;SDS011;1496;51.404;7.232;2024-02-21T04:17:41;15.83;;;7.40;;
2972;SDS011;1496;51.404;7.232;2024-02-21T04:20:13;16.73;;;7.87;;
2972;SDS011;1496;51.404;7.232;2024-02-21T04:22:39;17.93;;;8.67;;
2972;SDS011;1496;51.404;7.232;2024-02-21T04:25:05;19.10;;;7.87;;
2972;SDS011;1496;51.404;7.232;2024-02-21T04:27:31;21.00;;;7.40;;
2972;SDS011;1496;51.404;7.232;2024-02-21T04:29:57;19.37;;;8.10;;
2972;SDS011;1496;51.404;7.232;2024-02-21T04:32:23;15.00;;;7.03;;
2972;SDS011;1496;51.404;7.232;2024-02-21T04:34:48;17.20;;;7.60;;
2972;SDS011;1496;51.404;7.232;2024-02-21T04:37:15;18.30;;;7.20;;
2972;SDS011;1496;51.404;7.232;2024-02-21T04:39:41;19.00;;;7.13;;
2972;SDS011;1496;51.404;7.232;2024-02-21T04:42:06;21.73;;;8.37;;
2972;SDS011;1496;51.404;7.232;2024-02-21T04:44:32;19.10;;;7.87;;
2972;SDS011;1496;51.404;7.232;2024-02-21T04:46:57;19.17;;;8.33;;
2972;SDS011;1496;51.404;7.232;2024-02-21T04:49:23;14.63;;;6.13;;
2972;SDS011;1496;51.404;7.232;2024-02-21T04:51:49;15.50;;;6.20;;
2972;SDS011;1496;51.404;7.232;2024-02-21T04:54:14;18.47;;;7.40;;
2972;SDS011;1496;51.404;7.232;2024-02-21T04:56:40;17.50;;;7.27;;
2972;SDS011;1496;51.404;7.232;2024-02-21T04:59:05;18.93;;;9.00;;
2972;SDS011;1496;51.404;7.232;2024-02-21T05:01:31;13.77;;;7.33;;
2972;SDS011;1496;51.404;7.232;2024-02-21T05:03:57;15.40;;;8.00;;
2972;SDS011;1496;51.404;7.232;2024-02-21T05:06:22;14.33;;;6.77;;
2972;SDS011;1496;51.404;7.232;2024-02-21T05:08:49;15.33;;;7.90;;
2972;SDS011;1496;51.404;7.232;2024-02-21T05:11:14;13.10;;;6.07;;
2972;SDS011;1496;51.404;7.232;2024-02-21T05:13:40;19.43;;;6.70;;
2972;SDS011;1496;51.404;7.232;2024-02-21T05:16:06;15.77;;;6.30;;
2972;SDS011;1496;51.404;7.232;2024-02-21T05:18:32;13.57;;;6.83;;
2972;SDS011;1496;51.404;7.232;2024-02-21T05:20:58;19.00;;;6.93;;
2972;SDS011;1496;51.404;7.232;2024-02-21T05:23:24;17.63;;;6.23;;
2972;SDS011;1496;51.404;7.232;2024-02-21T05:25:50;24.67;;;8.93;;
2972;SDS011;1496;51.404;7.232;2024-02-21T05:28:16;17.70;;;5.87;;
2972;SDS011;1496;51.404;7.232;2024-02-21T05:30:42;18.20;;;6.10;;
2972;SDS011;1496;51.404;7.232;2024-02-21T05:33:08;19.33;;;6.13;;
2972;SDS011;1496;51.404;7.232;2024-02-21T05:35:34;26.63;;;9.20;;
2972;SDS011;1496;51.404;7.232;2024-02-21T05:38:00;22.70;;;6.30;;
2972;SDS011;1496;51.404;7.232;2024-02-21T05:40:29;20.50;;;7.50;;
2972;SDS011;1496;51.404;7.232;2024-02-21T05:42:55;22.07;;;7.00;;
2972;SDS011;1496;51.404;7.232;2024-02-21T05:45:20;20.83;;;6.87;;
2972;SDS011;1496;51.404;7.232;2024-02-21T05:47:46;28.03;;;7.90;;
2972;SDS011;1496;51.404;7.232;2024-02-21T05:50:11;30.20;;;6.90;;
2972;SDS011;1496;51.404;7.232;2024-02-21T05:52:37;26.10;;;7.83;;
2972;SDS011;1496;51.404;7.232;2024-02-21T05:55:03;18.63;;;7.07;;
2972;SDS011;1496;51.404;7.232;2024-02-21T05:57:29;18.83;;;6.67;;
2972;SDS011;1496;51.404;7.232;2024-02-21T05:59:54;20.03;;;7.77;;
2972;SDS011;1496;51.404;7.232;2024-02-21T06:02:20;17.60;;;6.70;;
2972;SDS011;1496;51.404;7.232;2024-02-21T06:04:46;20.13;;;5.73;;
2972;SDS011;1496;51.404;7.232;2024-02-21T06:07:12;19.50;;;6.63;;
2972;SDS011;1496;51.404;7.232;2024-02-21T06:09:38;25.00;;;7.60;;
2972;SDS011;1496;51.404;7.232;2024-02-21T06:12:03;19.43;;;6.50;;
2972;SDS011;1496;51.404;7.232;2024-02-21T06:14:29;19.60;;;6.87;;
2972;SDS011;1496;51.404;7.232;2024-02-21T06:16:55;13.70;;;5.93;;
2972;SDS011;1496;51.404;7.232;2024-02-21T06:19:20;21.93;;;6.70;;
2972;SDS011;1496;51.404;7.232;2024-02-21T06:21:46;13.83;;;5.07;;
2972;SDS011;1496;51.404;7.232;2024-02-21T06:24:12;17.27;;;5.53;;
2972;SDS011;1496;51.404;7.232;2024-02-21T06:26:38;17.63;;;6.10;;
2972;SDS011;1496;51.404;7.232;2024-02-21T06:29:05;16.00;;;5.07;;
2972;SDS011;1496;51.404;7.232;2024-02-21T06:31:31;17.47;;;6.13;;
2972;SDS011;1496;51.404;7.232;2024-02-21T06:33:57;18.33;;;5.47;;
2972;SDS011;1496;51.404;7.232;2024-02-21T06:36:22;18.20;;;6.33;;
2972;SDS011;1496;51.404;7.232;2024-02-21T06:38:48;19.07;;;5.63;;
2972;SDS011;1496;51.404;7.232;2024-02-21T06:41:15;20.80;;;6.13;;
2972;SDS011;1496;51.404;7.232;2024-02-21T06:43:41;23.90;;;5.43;;
2972;SDS011;1496;51.404;7.232;2024-02-21T06:46:07;23.37;;;5.70;;
2972;SDS011;1496;51.404;7.232;2024-02-21T06:48:32;17.70;;;4.30;;
2972;SDS011;1496;51.404;7.232;2024-02-21T06:50:58;20.17;;;5.77;;
2972;SDS011;1496;51.404;7.232;2024-02-21T06:53:24;22.47;;;5.00;;
2972;SDS011;1496;51.404;7.232;2024-02-21T06:55:49;22.47;;;5.37;;
2972;SDS011;1496;51.404;7.232;2024-02-21T06:58:15;21.70;;;4.67;;
2972;SDS011;1496;51.404;7.232;2024-02-21T07:00:42;25.87;;;5.13;;
2972;SDS011;1496;51.404;7.232;2024-02-21T07:03:07;23.97;;;5.90;;
2972;SDS011;1496;51.404;7.232;2024-02-21T07:05:33;22.97;;;4.90;;
2972;SDS011;1496;51.404;7.232;2024-02-21T07:07:59;16.70;;;4.80;;
2972;SDS011;1496;51.404;7.232;2024-02-21T07:10:24;25.50;;;4.90;;
2972;SDS011;1496;51.404;7.232;2024-02-21T07:12:50;23.33;;;5.40;;
2972;SDS011;1496;51.404;7.232;2024-02-21T07:15:17;18.77;;;5.00;;
2972;SDS011;1496;51.404;7.232;2024-02-21T07:17:42;19.80;;;5.13;;
2972;SDS011;1496;51.404;7.232;2024-02-21T07:20:08;19.30;;;5.13;;
2972;SDS011;1496;51.404;7.232;2024-02-21T07:22:34;18.40;;;4.87;;
2972;SDS011;1496;51.404;7.232;2024-02-21T07:25:00;24.83;;;5.10;;
2972;SDS011;1496;51.404;7.232;2024-02-21T07:27:25;19.97;;;4.87;;
2972;SDS011;1496;51.404;7.232;2024-02-21T07:29:55;20.13;;;5.23;;
2972;SDS011;1496;51.404;7.232;2024-02-21T07:32:21;19.10;;;5.63;;
2972;SDS011;1496;51.404;7.232;2024-02-21T07:34:47;20.40;;;4.50;;
2972;SDS011;1496;51.404;7.232;2024-02-21T07:37:13;20.87;;;4.80;;
2972;SDS011;1496;51.404;7.232;2024-02-21T07:39:38;22.07;;;5.80;;
2972;SDS011;1496;51.404;7.232;2024-02-21T07:42:04;20.27;;;4.23;;
2972;SDS011;1496;51.404;7.232;2024-02-21T07:44:31;24.40;;;7.17;;
2972;SDS011;1496;51.404;7.232;2024-02-21T07:46:57;20.37;;;5.53;;
2972;SDS011;1496;51.404;7.232;2024-02-21T07:49:23;22.27;;;5.17;;
2972;SDS011;1496;51.404;7.232;2024-02-21T07:51:49;22.50;;;4.33;;
2972;SDS011;1496;51.404;7.232;2024-02-21T07:54:15;25.77;;;5.37;;
2972;SDS011;1496;51.404;7.232;2024-02-21T07:56:41;28.93;;;5.53;;
2972;SDS011;1496;51.404;7.232;2024-02-21T07:59:07;21.70;;;5.50;;
2972;SDS011;1496;51.404;7.232;2024-02-21T08:01:33;22.60;;;5.00;;
2972;SDS011;1496;51.404;7.232;2024-02-21T08:03:58;21.33;;;4.73;;
2972;SDS011;1496;51.404;7.232;2024-02-21T08:06:24;24.87;;;5.20;;
2972;SDS011;1496;51.404;7.232;2024-02-21T08:08:50;22.33;;;4.30;;
2972;SDS011;1496;51.404;7.232;2024-02-21T08:11:15;20.50;;;4.60;;
2972;SDS011;1496;51.404;7.232;2024-02-21T08:13:41;30.00;;;6.00;;
2972;SDS011;1496;51.404;7.232;2024-02-21T08:16:07;24.43;;;5.03;;
2972;SDS011;1496;51.404;7.232;2024-02-21T08:18:32;28.00;;;4.27;;
2972;SDS011;1496;51.404;7.232;2024-02-21T08:21:02;22.10;;;4.20;;
2972;SDS011;1496;51.404;7.232;2024-02-21T08:23:28;22.83;;;5.40;;
2972;SDS011;1496;51.404;7.232;2024-02-21T08:25:54;23.73;;;4.60;;
2972;SDS011;1496;51.404;7.232;2024-02-21T08:28:19;27.40;;;4.33;;
2972;SDS011;1496;51.404;7.232;2024-02-21T08:30:45;20.17;;;3.90;;
2972;SDS011;1496;51.404;7.232;2024-02-21T08:33:14;20.43;;;4.00;;
2972;SDS011;1496;51.404;7.232;2024-02-21T08:35:45;24.80;;;3.73;;
2972;SDS011;1496;51.404;7.232;2024-02-21T08:38:10;22.97;;;4.80;;
2972;SDS011;1496;51.404;7.232;2024-02-21T08:40:36;21.07;;;3.60;;
2972;SDS011;1496;51.404;7.232;2024-02-21T08:43:02;22.90;;;4.10;;
2972;SDS011;1496;51.404;7.232;2024-02-21T08:45:28;24.07;;;4.93;;
2972;SDS011;1496;51.404;7.232;2024-02-21T08:47:54;23.00;;;3.97;;
2972;SDS011;1496;51.404;7.232;2024-02-21T08:50:20;25.93;;;4.07;;
2972;SDS011;1496;51.404;7.232;2024-02-21T08:52:45;22.10;;;4.10;;
2972;SDS011;1496;51.404;7.232;2024-02-21T08:55:11;24.90;;;4.30;;
2972;SDS011;1496;51.404;7.232;2024-02-21T08:57:37;28.23;;;5.10;;
2972;SDS011;1496;51.404;7.232;2024-02-21T09:00:06;24.90;;;5.37;;
2972;SDS011;1496;51.404;7.232;2024-02-21T09:02:41;24.47;;;5.13;;
2972;SDS011;1496;51.404;7.232;2024-02-21T09:05:10;24.20;;;4.67;;
2972;SDS011;1496;51.404;7.232;2024-02-21T09:07:36;25.30;;;5.40;;
2972;SDS011;1496;51.404;7.232;2024-02-21T09:10:02;29.40;;;5.40;;
2972;SDS011;1496;51.404;7.232;2024-02-21T09:12:28;20.73;;;5.50;;
2972;SDS011;1496;51.404;7.232;2024-02-21T09:14:54;22.77;;;6.17;;
2972;SDS011;1496;51.404;7.232;2024-02-21T09:17:20;19.33;;;6.30;;
2972;SDS011;1496;51.404;7.232;2024-02-21T09:19:46;22.67;;;6.50;;
2972;SDS011;1496;51.404;7.232;2024-02-21T09:22:13;26.33;;;6.30;;
2972;SDS011;1496;51.404;7.232;2024-02-21T09:24:39;19.40;;;7.17;;
2972;SDS011;1496;51.404;7.232;2024-02-21T09:27:05;23.43;;;8.53;;
2972;SDS011;1496;51.404;7.232;2024-02-21T09:29:31;26.00;;;9.83;;
2972;SDS011;1496;51.404;7.232;2024-02-21T09:31:58;23.30;;;9.50;;
2972;SDS011;1496;51.404;7.232;2024-02-21T09:34:24;19.10;;;8.60;;
2972;SDS011;1496;51.404;7.232;2024-02-21T09:36:50;24.50;;;9.20;;
2972;SDS011;1496;51.404;7.232;2024-02-21T09:39:16;19.73;;;9.57;;
2972;SDS011;1496;51.404;7.232;2024-02-21T09:41:48;19.47;;;8.70;;
2972;SDS011;1496;51.404;7.232;2024-02-21T09:44:20;19.23;;;8.03;;
2972;SDS011;1496;51.404;7.232;2024-02-21T09:46:57;14.00;;;7.90;;
2972;SDS011;1496;51.404;7.232;2024-02-21T09:49:30;17.50;;;7.80;;
2972;SDS011;1496;51.404;7.232;2024-02-21T09:51:57;16.97;;;6.53;;
2972;SDS011;1496;51.404;7.232;2024-02-21T09:54:29;20.70;;;7.23;;
2972;SDS011;1496;51.404;7.232;2024-02-21T09:56:57;14.40;;;5.40;;
2972;SDS011;1496;51.404;7.232;2024-02-21T09:59:24;18.77;;;7.30;;
2972;SDS011;1496;51.404;7.232;2024-02-21T10:01:51;18.83;;;7.83;;
2972;SDS011;1496;51.404;7.232;2024-02-21T10:04:17;15.50;;;7.50;;
2972;SDS011;1496;51.404;7.232;2024-02-21T10:06:44;18.50;;;6.57;;
2972;SDS011;1496;51.404;7.232;2024-02-21T10:09:19;16.77;;;7.80;;
2972;SDS011;1496;51.404;7.232;2024-02-21T10:11:46;19.80;;;7.90;;
2972;SDS011;1496;51.404;7.232;2024-02-21T10:14:11;15.90;;;6.00;;
2972;SDS011;1496;51.404;7.232;2024-02-21T10:16:37;19.90;;;6.40;;
2972;SDS011;1496;51.404;7.232;2024-02-21T10:19:03;19.90;;;6.90;;
2972;SDS011;1496;51.404;7.232;2024-02-21T10:21:28;16.30;;;7.27;;
2972;SDS011;1496;51.404;7.232;2024-02-21T10:23:54;15.40;;;5.50;;
2972;SDS011;1496;51.404;7.232;2024-02-21T10:26:20;19.13;;;6.30;;
2972;SDS011;1496;51.404;7.232;2024-02-21T10:28:47;15.20;;;5.57;;
2972;SDS011;1496;51.404;7.232;2024-02-21T10:31:26;18.60;;;6.37;;
2972;SDS011;1496;51.404;7.232;2024-02-21T10:33:59;20.23;;;6.73;;
2972;SDS011;1496;51.404;7.232;2024-02-21T10:36:28;18.37;;;5.40;;
2972;SDS011;1496;51.404;7.232;2024-02-21T10:38:54;15.67;;;4.73;;
2972;SDS011;1496;51.404;7.232;2024-02-21T10:41:20;21.93;;;5.47;;
2972;SDS011;1496;51.404;7.232;2024-02-21T10:43:49;22.73;;;5.10;;
2972;SDS011;1496;51.404;7.232;2024-02-21T10:46:20;25.03;;;6.30;;
2972;SDS011;1496;51.404;7.232;2024-02-21T10:48:48;25.27;;;6.70;;
2972;SDS011;1496;51.404;7.232;2024-02-21T10:51:30;23.90;;;5.33;;
2972;SDS011;1496;51.404;7.232;2024-02-21T10:56:38;23.70;;;5.83;;
2972;SDS011;1496;51.404;7.232;2024-02-21T10:59:06;23.83;;;5.80;;
2972;SDS011;1496;51.404;7.232;2024-02-21T11:01:33;26.53;;;6.53;;
2972;SDS011;1496;51.404;7.232;2024-02-21T11:04:04;26.57;;;6.43;;
2972;SDS011;1496;51.404;7.232;2024-02-21T11:06:32;28.10;;;7.47;;
2972;SDS011;1496;51.404;7.232;2024-02-21T11:09:03;28.40;;;7.20;;
2972;SDS011;1496;51.404;7.232;2024-02-21T11:11:34;24.90;;;7.60;;
2972;SDS011;1496;51.404;7.232;2024-02-21T11:14:10;23.13;;;6.83;;
2972;SDS011;1496;51.404;7.232;2024-02-21T11:16:42;24.93;;;6.13;;
2972;SDS011;1496;51.404;7.232;2024-02-21T11:19:09;21.13;;;5.90;;
2972;SDS011;1496;51.404;7.232;2024-02-21T11:21:43;22.80;;;6.40;;
2972;SDS011;1496;51.404;7.232;2024-02-21T11:24:09;22.50;;;7.20;;
2972;SDS011;1496;51.404;7.232;2024-02-21T11:26:36;18.90;;;5.80;;
2972;SDS011;1496;51.404;7.232;2024-02-21T11:29:03;18.77;;;4.90;;
2972;SDS011;1496;51.404;7.232;2024-02-21T11:31:41;21.73;;;5.60;;
2972;SDS011;1496;51.404;7.232;2024-02-21T11:34:09;14.10;;;4.97;;
2972;SDS011;1496;51.404;7.232;2024-02-21T11:36:35;10.60;;;4.70;;
2972;SDS011;1496;51.404;7.232;2024-02-21T11:39:10;13.10;;;5.10;;
2972;SDS011;1496;51.404;7.232;2024-02-21T11:41:37;11.60;;;5.07;;
2972;SDS011;1496;51.404;7.232;2024-02-21T11:44:02;11.37;;;4.47;;
2972;SDS011;1496;51.404;7.232;2024-02-21T11:46:28;10.40;;;4.57;;
2972;SDS011;1496;51.404;7.232;2024-02-21T11:48:54;8.53;;;4.97;;
2972;SDS011;1496;51.404;7.232;2024-02-21T11:51:30;11.30;;;4.47;;
2972;SDS011;1496;51.404;7.232;2024-02-21T11:53:55;10.60;;;4.27;;
2972;SDS011;1496;51.404;7.232;2024-02-21T11:56:22;8.07;;;4.43;;
2972;SDS011;1496;51.404;7.232;2024-02-21T11:58:48;10.63;;;4.30;;
2972;SDS011;1496;51.404;7.232;2024-02-21T12:01:14;5.63;;;3.73;;
2972;SDS011;1496;51.404;7.232;2024-02-21T12:03:40;8.40;;;3.87;;
2972;SDS011;1496;51.404;7.232;2024-02-21T12:06:07;12.17;;;3.90;;
2972;SDS011;1496;51.404;7.232;2024-02-21T12:08:42;6.57;;;3.43;;
2972;SDS011;1496;51.404;7.232;2024-02-21T12:11:20;11.23;;;3.43;;
2972;SDS011;1496;51.404;7.232;2024-02-21T12:14:01;7.17;;;3.20;;
2972;SDS011;1496;51.404;7.232;2024-02-21T12:16:32;11.60;;;3.67;;
2972;SDS011;1496;51.404;7.232;2024-02-21T12:18:58;8.33;;;3.30;;
2972;SDS011;1496;51.404;7.232;2024-02-21T12:21:25;9.13;;;2.63;;
2972;SDS011;1496;51.404;7.232;2024-02-21T12:23:59;8.33;;;3.03;;
2972;SDS011;1496;51.404;7.232;2024-02-21T12:26:25;12.13;;;3.50;;
2972;SDS011;1496;51.404;7.232;2024-02-21T12:28:52;7.70;;;2.87;;
2972;SDS011;1496;51.404;7.232;2024-02-21T12:31:18;26.73;;;3.70;;
2972;SDS011;1496;51.404;7.232;2024-02-21T12:33:44;6.07;;;2.57;;
2972;SDS011;1496;51.404;7.232;2024-02-21T12:36:10;10.03;;;3.00;;
2972;SDS011;1496;51.404;7.232;2024-02-21T12:38:36;8.70;;;2.70;;
2972;SDS011;1496;51.404;7.232;2024-02-21T12:41:02;7.87;;;3.07;;
2972;SDS011;1496;51.404;7.232;2024-02-21T12:43:28;9.73;;;3.40;;
2972;SDS011;1496;51.404;7.232;2024-02-21T12:45:54;7.50;;;2.37;;
2972;SDS011;1496;51.404;7.232;2024-02-21T12:48:19;7.17;;;3.00;;
2972;SDS011;1496;51.404;7.232;2024-02-21T12:50:49;7.53;;;2.87;;
2972;SDS011;1496;51.404;7.232;2024-02-21T12:53:19;11.83;;;2.50;;
2972;SDS011;1496;51.404;7.232;2024-02-21T12:55:46;5.80;;;2.67;;
2972;SDS011;1496;51.404;7.232;2024-02-21T12:58:16;7.30;;;2.43;;
2972;SDS011;1496;51.404;7.232;2024-02-21T13:00:41;10.40;;;2.60;;
2972;SDS011;1496;51.404;7.232;2024-02-21T13:03:07;9.13;;;3.10;;
2972;SDS011;1496;51.404;7.232;2024-02-21T13:05:37;7.90;;;2.90;;
2972;SDS011;1496;51.404;7.232;2024-02-21T13:08:04;12.73;;;3.60;;
2972;SDS011;1496;51.404;7.232;2024-02-21T13:10:34;6.97;;;3.20;;
2972;SDS011;1496;51.404;7.232;2024-02-21T13:13:02;5.20;;;2.80;;
2972;SDS011;1496;51.404;7.232;2024-02-21T13:15:28;15.33;;;3.87;;
2972;SDS011;1496;51.404;7.232;2024-02-21T13:17:55;6.80;;;2.70;;
2972;SDS011;1496;51.404;7.232;2024-02-21T13:20:22;3.70;;;2.70;;
2972;SDS011;1496;51.404;7.232;2024-02-21T13:22:48;7.80;;;2.80;;
2972;SDS011;1496;51.404;7.232;2024-02-21T13:25:14;12.20;;;3.50;;
2972;SDS011;1496;51.404;7.232;2024-02-21T13:27:44;10.80;;;3.43;;
2972;SDS011;1496;51.404;7.232;2024-02-21T13:30:10;5.70;;;2.80;;
2972;SDS011;1496;51.404;7.232;2024-02-21T13:32:36;6.10;;;2.77;;
2972;SDS011;1496;51.404;7.232;2024-02-21T13:35:02;9.03;;;3.27;;
2972;SDS011;1496;51.404;7.232;2024-02-21T13:37:28;7.17;;;2.73;;
2972;SDS011;1496;51.404;7.232;2024-02-21T13:39:54;6.03;;;2.90;;
2972;SDS011;1496;51.404;7.232;2024-02-21T13:42:20;6.67;;;2.87;;
2972;SDS011;1496;51.404;7.232;2024-02-21T13:44:46;5.73;;;2.60;;
2972;SDS011;1496;51.404;7.232;2024-02-21T13:47:13;6.60;;;2.77;;
2972;SDS011;1496;51.404;7.232;2024-02-21T13:49:39;10.43;;;2.83;;
2972;SDS011;1496;51.404;7.232;2024-02-21T13:52:05;6.97;;;2.83;;
2972;SDS011;1496;51.404;7.232;2024-02-21T13:54:31;5.20;;;3.03;;
2972;SDS011;1496;51.404;7.232;2024-02-21T13:56:57;7.80;;;2.47;;
2972;SDS011;1496;51.404;7.232;2024-02-21T13:59:22;8.03;;;2.80;;
2972;SDS011;1496;51.404;7.232;2024-02-21T14:01:48;7.13;;;2.80;;
2972;SDS011;1496;51.404;7.232;2024-02-21T14:04:14;10.10;;;2.73;;
2972;SDS011;1496;51.404;7.232;2024-02-21T14:06:40;9.20;;;3.27;;
2972;SDS011;1496;51.404;7.232;2024-02-21T14:09:11;7.13;;;2.73;;
2972;SDS011;1496;51.404;7.232;2024-02-21T14:11:37;12.37;;;2.37;;
2972;SDS011;1496;51.404;7.232;2024-02-21T14:14:06;7.93;;;3.00;;
2972;SDS011;1496;51.404;7.232;2024-02-21T14:16:32;6.37;;;2.33;;
2972;SDS011;1496;51.404;7.232;2024-02-21T14:18:59;4.80;;;2.37;;
2972;SDS011;1496;51.404;7.232;2024-02-21T14:21:25;8.67;;;2.77;;
2972;SDS011;1496;51.404;7.232;2024-02-21T14:23:51;4.20;;;2.40;;
2972;SDS011;1496;51.404;7.232;2024-02-21T14:26:18;9.10;;;2.67;;
2972;SDS011;1496;51.404;7.232;2024-02-21T14:28:44;7.17;;;2.30;;
2972;SDS011;1496;51.404;7.232;2024-02-21T14:31:11;3.50;;;1.87;;
2972;SDS011;1496;51.404;7.232;2024-02-21T14:33:36;3.90;;;2.33;;
2972;SDS011;1496;51.404;7.232;2024-02-21T14:36:02;6.60;;;2.63;;
2972;SDS011;1496;51.404;7.232;2024-02-21T14:38:28;8.20;;;2.40;;
2972;SDS011;1496;51.404;7.232;2024-02-21T14:40:54;13.70;;;3.10;;
2972;SDS011;1496;51.404;7.232;2024-02-21T14:43:20;5.23;;;2.43;;
2972;SDS011;1496;51.404;7.232;2024-02-21T14:45:48;3.70;;;2.07;;
2972;SDS011;1496;51.404;7.232;2024-02-21T14:48:14;10.67;;;2.73;;
2972;SDS011;1496;51.404;7.232;2024-02-21T14:50:40;5.80;;;2.60;;
2972;SDS011;1496;51.404;7.232;2024-02-21T14:53:07;5.37;;;2.40;;
2972;SDS011;1496;51.404;7.232;2024-02-21T14:55:33;6.43;;;2.90;;
2972;SDS011;1496;51.404;7.232;2024-02-21T14:57:59;7.07;;;2.73;;
2972;SDS011;1496;51.404;7.232;2024-02-21T15:00:25;10.70;;;3.27;;
2972;SDS011;1496;51.404;7.232;2024-02-21T15:02:57;7.70;;;2.40;;
2972;SDS011;1496;51.404;7.232;2024-02-21T15:05:23;9.80;;;2.60;;